createdAt,value
2022-12-11T00:01:53.618Z,100085.13
2022-12-11T00:04:22.345Z,100091.69
2022-12-11T00:06:55.705Z,100088.44
2022-12-11T00:09:24.745Z,100087.31
2022-12-11T00:11:53.068Z,100091.63
2022-12-11T00:14:21.635Z,100096.41
2022-12-11T00:16:50.776Z,100096.94
2022-12-11T00:19:20.041Z,100095.25
2022-12-11T00:21:48.868Z,100099.78
2022-12-11T00:24:18.446Z,100103.50
2022-12-11T00:26:46.658Z,100096.41
2022-12-11T00:29:16.188Z,100093.50
2022-12-11T00:31:44.732Z,100092.28
2022-12-11T00:34:13.637Z,100094.53
2022-12-11T00:36:41.807Z,100092.56
2022-12-11T00:39:13.169Z,100096.78
2022-12-11T00:41:43.151Z,100097.06
2022-12-11T00:44:11.710Z,100106.69
2022-12-11T00:46:40.155Z,100099.28
2022-12-11T00:49:08.341Z,100097.59
2022-12-11T00:51:36.927Z,100093.69
2022-12-11T00:54:06.603Z,100097.44
2022-12-11T00:56:35.554Z,100101.44
2022-12-11T00:59:06.909Z,100096.28
2022-12-11T01:01:35.671Z,100089.94
2022-12-11T01:04:04.032Z,100094.72
2022-12-11T01:06:32.699Z,100091.03
2022-12-11T01:09:18.655Z,100092.53
2022-12-11T01:11:47.224Z,100091.13
2022-12-11T01:14:17.506Z,100086.47
2022-12-11T01:16:46.054Z,100080.56
2022-12-11T01:19:14.802Z,100085.03
2022-12-11T01:21:43.091Z,100091.97
2022-12-11T01:24:11.981Z,100091.97
2022-12-11T01:26:40.784Z,100086.06
2022-12-11T01:29:08.999Z,100077.19
2022-12-11T01:31:38.880Z,100097.19
2022-12-11T01:34:07.573Z,100091.56
2022-12-11T01:36:35.866Z,100079.31
2022-12-11T01:39:04.177Z,100079.78
2022-12-11T01:41:33.848Z,100082.97
2022-12-11T01:44:06.767Z,100094.31
2022-12-11T01:46:36.870Z,100096.25
2022-12-11T01:49:10.410Z,100091.09
2022-12-11T01:51:43.372Z,100092.63
2022-12-11T01:54:14.865Z,100088.66
2022-12-11T01:56:46.206Z,100094.09
2022-12-11T01:59:19.577Z,100087.47
2022-12-11T02:01:52.165Z,100087.47
2022-12-11T02:04:22.906Z,100090.44
2022-12-11T02:06:53.645Z,100088.75
2022-12-11T02:09:25.978Z,100085.56
2022-12-11T02:12:03.114Z,100094.53
2022-12-11T02:14:39.609Z,100088.16
2022-12-11T02:17:13.341Z,100088.69
2022-12-11T02:19:54.443Z,100089.72
2022-12-11T02:22:34.765Z,100089.25
2022-12-11T02:25:11.372Z,100088.31
2022-12-11T02:27:45.899Z,100098.97
2022-12-11T02:30:17.766Z,100093.81
2022-12-11T02:32:49.963Z,100092.88
2022-12-11T02:35:22.525Z,100100.81
2022-12-11T02:37:57.531Z,100101.81
2022-12-11T02:40:30.975Z,100114.19
2022-12-11T02:43:06.242Z,100107.53
2022-12-11T02:45:37.137Z,100105.84
2022-12-11T02:48:08.014Z,100102.38
2022-12-11T02:50:40.617Z,100101.91
2022-12-11T02:53:12.257Z,100098.72
2022-12-11T02:55:43.202Z,100102.44
2022-12-11T02:58:17.556Z,100100.00
2022-12-11T03:00:48.317Z,100099.06
2022-12-11T03:03:17.247Z,100095.13
2022-12-11T03:05:46.650Z,100103.81
2022-12-11T03:08:17.401Z,100107.28
2022-12-11T03:10:46.635Z,100100.16
2022-12-11T03:13:24.708Z,100093.03
2022-12-11T03:16:06.024Z,100097.16
2022-12-11T03:18:41.230Z,100098.25
2022-12-11T03:21:15.688Z,100084.94
2022-12-11T03:23:51.239Z,100089.06
2022-12-11T03:26:21.443Z,100085.41
2022-12-11T03:28:55.329Z,100081.13
2022-12-11T03:31:28.865Z,100090.50
2022-12-11T03:34:02.382Z,100085.34
2022-12-11T03:36:36.026Z,100096.00
2022-12-11T03:39:09.688Z,100091.31
2022-12-11T03:41:40.834Z,100095.25
2022-12-11T03:44:10.493Z,100104.63
2022-12-11T03:46:41.992Z,100095.47
2022-12-11T03:49:16.755Z,100104.06
2022-12-11T03:51:47.189Z,100101.84
2022-12-11T03:54:16.467Z,100101.63
2022-12-11T03:56:47.638Z,100096.19
2022-12-11T03:59:18.092Z,100102.88
2022-12-11T04:01:47.736Z,100108.81
2022-12-11T04:04:16.355Z,100104.16
2022-12-11T04:06:44.972Z,100099.75
2022-12-11T04:09:17.209Z,100099.25
2022-12-11T04:11:45.766Z,100100.28
2022-12-11T04:14:33.139Z,100090.63
2022-12-11T04:17:02.912Z,100106.25
2022-12-11T04:19:48.485Z,100097.81
2022-12-11T04:22:35.967Z,100099.31
2022-12-11T04:25:06.826Z,100100.09
2022-12-11T04:27:50.358Z,100099.81
2022-12-11T04:30:22.052Z,100108.69
2022-12-11T04:32:52.837Z,100101.56
2022-12-11T04:35:21.802Z,100100.59
2022-12-11T04:37:50.714Z,100099.84
2022-12-11T04:40:20.816Z,100097.00
2022-12-11T04:42:49.238Z,100095.16
2022-12-11T04:45:17.726Z,100092.53
2022-12-11T04:47:45.985Z,100094.56
2022-12-11T04:50:17.530Z,100097.97
2022-12-11T04:52:46.035Z,100096.00
2022-12-11T04:55:14.853Z,100096.47
2022-12-11T04:57:43.275Z,100095.25
2022-12-11T05:00:14.050Z,100092.78
2022-12-11T05:02:43.563Z,100093.59
2022-12-11T05:05:14.065Z,100093.59
2022-12-11T05:07:43.912Z,100094.00
2022-12-11T05:10:12.447Z,100091.75
2022-12-11T05:12:43.980Z,100090.88
2022-12-11T05:15:12.711Z,100082.94
2022-12-11T05:17:41.380Z,100074.03
2022-12-11T05:20:10.846Z,100074.84
2022-12-11T05:22:40.624Z,100081.50
2022-12-11T05:25:13.991Z,100071.63
2022-12-11T05:27:42.518Z,100075.59
2022-12-11T05:30:11.738Z,100075.13
2022-12-11T05:32:40.214Z,100064.44
2022-12-11T05:35:09.977Z,100073.34
2022-12-11T05:37:38.566Z,100069.19
2022-12-11T05:40:08.509Z,100070.91
2022-12-11T05:42:38.526Z,100069.41
2022-12-11T05:45:08.706Z,100067.16
2022-12-11T05:47:39.447Z,100051.78
2022-12-11T05:50:08.890Z,100057.91
2022-12-11T05:52:37.105Z,100047.91
2022-12-11T05:55:06.236Z,100044.88
2022-12-11T05:57:34.548Z,100058.59
2022-12-11T06:00:06.006Z,100054.78
2022-12-11T06:02:36.346Z,100061.19
2022-12-11T06:05:05.073Z,100059.63
2022-12-11T06:07:33.704Z,100054.38
2022-12-11T06:10:02.089Z,100060.75
2022-12-11T06:12:31.159Z,100060.75
2022-12-11T06:14:59.740Z,100055.31
2022-12-11T06:17:29.385Z,100047.59
2022-12-11T06:19:57.506Z,100052.94
2022-12-11T06:22:27.145Z,100055.31
2022-12-11T06:24:55.504Z,100054.28
2022-12-11T06:27:23.797Z,100063.25
2022-12-11T06:29:52.881Z,100063.41
2022-12-11T06:32:21.805Z,100049.38
2022-12-11T06:34:51.977Z,100043.44
2022-12-11T06:37:20.474Z,100042.50
2022-12-11T06:39:48.575Z,100039.53
2022-12-11T06:42:17.759Z,100030.63
2022-12-11T06:44:46.130Z,100037.28
2022-12-11T06:47:15.361Z,100044.47
2022-12-11T06:49:43.672Z,100031.16
2022-12-11T06:52:18.194Z,100038.63
2022-12-11T06:54:47.391Z,100047.06
2022-12-11T06:57:16.745Z,100044.88
2022-12-11T06:59:49.421Z,100051.53
2022-12-11T07:02:20.239Z,100052.75
2022-12-11T07:04:54.907Z,100046.09
2022-12-11T07:07:24.809Z,100049.16
2022-12-11T07:09:53.306Z,100052.47
2022-12-11T07:12:21.968Z,100049.63
2022-12-11T07:14:51.726Z,100049.88
2022-12-11T07:17:20.394Z,100049.63
2022-12-11T07:19:48.524Z,100046.25
2022-12-11T07:22:16.732Z,100038.09
2022-12-11T07:24:47.426Z,100038.59
2022-12-11T07:27:15.983Z,100047.72
2022-12-11T07:29:46.096Z,100052.59
2022-12-11T07:32:14.609Z,100058.13
2022-12-11T07:34:47.225Z,100056.81
2022-12-11T07:37:18.658Z,100063.53
2022-12-11T07:39:49.140Z,100066.03
2022-12-11T07:42:17.715Z,100069.81
2022-12-11T07:44:45.926Z,100065.09
2022-12-11T07:47:14.266Z,100065.88
2022-12-11T07:49:42.492Z,100065.81
2022-12-11T07:52:10.882Z,100069.81
2022-12-11T07:54:40.007Z,100066.38
2022-12-11T07:57:14.164Z,100071.63
2022-12-11T07:59:42.901Z,100066.75
2022-12-11T08:02:12.111Z,100077.38
2022-12-11T08:04:42.029Z,100078.31
2022-12-11T08:07:10.965Z,100074.09
2022-12-11T08:09:39.747Z,100075.13
2022-12-11T08:12:09.296Z,100081.56
2022-12-11T08:14:37.728Z,100081.94
2022-12-11T08:17:06.198Z,100084.97
2022-12-11T08:19:34.897Z,100085.94
2022-12-11T08:22:03.386Z,100077.50
2022-12-11T08:24:32.021Z,100080.00
2022-12-11T08:27:01.659Z,100084.44
2022-12-11T08:29:32.113Z,100087.00
2022-12-11T08:32:00.509Z,100084.81
2022-12-11T08:34:28.825Z,100074.28
2022-12-11T08:36:57.386Z,100077.00
2022-12-11T08:39:26.973Z,100060.97
2022-12-11T08:41:56.094Z,100067.69
2022-12-11T08:44:26.817Z,100062.00
2022-12-11T08:46:57.626Z,100062.44
2022-12-11T08:49:29.861Z,100073.50
2022-12-11T08:52:01.106Z,100075.16
2022-12-11T08:54:29.830Z,100067.00
2022-12-11T08:56:58.553Z,100077.13
2022-12-11T08:59:27.059Z,100072.69
2022-12-11T09:01:57.690Z,100073.97
2022-12-11T09:04:26.886Z,100063.84
2022-12-11T09:06:57.708Z,100064.97
2022-12-11T09:09:26.311Z,100070.09
2022-12-11T09:11:54.820Z,100077.59
2022-12-11T09:14:23.272Z,100076.75
2022-12-11T09:16:51.716Z,100070.78
2022-12-11T09:19:21.755Z,100073.19
2022-12-11T09:21:50.545Z,100085.59
2022-12-11T09:24:19.399Z,100069.13
2022-12-11T09:26:48.424Z,100075.25
2022-12-11T09:29:16.580Z,100077.97
2022-12-11T09:31:46.403Z,100080.13
2022-12-11T09:34:15.188Z,100080.78
2022-12-11T09:36:45.682Z,100082.94
2022-12-11T09:39:15.731Z,100069.91
2022-12-11T09:41:54.013Z,100080.13
2022-12-11T09:44:34.078Z,100068.88
2022-12-11T09:47:02.844Z,100075.00
2022-12-11T09:49:39.267Z,100070.59
2022-12-11T09:52:15.305Z,100070.13
2022-12-11T09:54:49.539Z,100069.94
2022-12-11T09:57:30.689Z,100068.81
2022-12-11T10:00:11.428Z,100071.34
2022-12-11T10:02:57.154Z,100071.34
2022-12-11T10:05:33.746Z,100059.19
2022-12-11T10:08:13.802Z,100052.09
2022-12-11T10:10:45.609Z,100045.13
2022-12-11T10:13:26.259Z,100049.28
2022-12-11T10:16:00.504Z,100048.56
2022-12-11T10:18:31.322Z,100048.06
2022-12-11T10:21:04.486Z,100051.50
2022-12-11T10:23:39.782Z,100055.13
2022-12-11T10:26:14.510Z,100048.94
2022-12-11T10:28:43.203Z,100045.69
2022-12-11T10:31:18.363Z,100043.22
2022-12-11T10:33:57.003Z,100041.31
2022-12-11T10:36:30.528Z,100038.88
2022-12-11T10:39:00.529Z,100033.69
2022-12-11T10:41:39.289Z,100025.94
2022-12-11T10:44:17.417Z,100026.16
2022-12-11T10:46:46.602Z,100015.78
2022-12-11T10:49:26.198Z,100010.31
2022-12-11T10:51:56.305Z,100010.81
2022-12-11T10:54:39.503Z,100007.00
2022-12-11T10:57:09.857Z,99999.84
2022-12-11T10:59:42.926Z,100003.66
2022-12-11T11:02:23.005Z,100002.66
2022-12-11T11:04:53.110Z,100009.16
2022-12-11T11:07:24.075Z,100006.91
2022-12-11T11:10:07.000Z,99994.28
2022-12-11T11:12:39.728Z,99988.84
2022-12-11T11:15:13.618Z,99998.75
2022-12-11T11:17:54.476Z,99990.59
2022-12-11T11:20:26.770Z,99986.13
2022-12-11T11:23:00.029Z,99985.13
2022-12-11T11:25:32.612Z,99980.66
2022-12-11T11:28:04.301Z,99979.66
2022-12-11T11:30:35.288Z,99985.34
2022-12-11T11:33:08.257Z,99982.63
2022-12-11T11:35:39.020Z,99983.41
2022-12-11T11:38:18.687Z,99971.69
2022-12-11T11:40:59.396Z,99975.44
2022-12-11T11:43:38.978Z,99978.19
2022-12-11T11:46:13.268Z,99977.44
2022-12-11T11:48:49.388Z,99968.50
2022-12-11T11:51:24.080Z,99967.28
2022-12-11T11:53:56.003Z,99966.00
2022-12-11T11:56:28.882Z,99960.31
2022-12-11T11:59:04.516Z,99963.06
2022-12-11T12:01:33.668Z,99962.56
2022-12-11T12:04:05.348Z,99960.81
2022-12-11T12:06:52.256Z,99964.53
2022-12-11T12:09:33.415Z,99964.00
2022-12-11T12:12:12.401Z,99960.06
2022-12-11T12:14:56.923Z,99957.09
2022-12-11T12:17:38.498Z,99955.88
2022-12-11T12:20:18.495Z,99957.34
2022-12-11T12:22:58.688Z,99953.88
2022-12-11T12:25:32.351Z,99952.41
2022-12-11T12:28:12.957Z,99957.13
2022-12-11T12:30:52.101Z,99954.63
2022-12-11T12:33:32.351Z,99948.19
2022-12-11T12:36:12.145Z,99948.44
2022-12-11T12:38:48.548Z,99952.41
2022-12-11T12:41:22.720Z,99953.13
2022-12-11T12:44:09.572Z,99956.84
2022-12-11T12:46:58.552Z,99950.41
2022-12-11T12:49:35.642Z,99951.66
2022-12-11T12:52:06.397Z,99955.13
2022-12-11T12:54:37.571Z,99950.91
2022-12-11T12:57:06.947Z,99953.38
2022-12-11T12:59:36.574Z,99954.88
2022-12-11T13:02:06.585Z,99950.41
2022-12-11T13:04:55.588Z,99948.19
2022-12-11T13:07:30.164Z,99952.41
2022-12-11T13:10:06.717Z,99946.44
2022-12-11T13:12:44.109Z,99942.25
2022-12-11T13:15:35.781Z,99932.31
2022-12-11T13:18:27.518Z,99942.97
2022-12-11T13:20:57.884Z,99936.78
2022-12-11T13:23:32.376Z,99928.09
2022-12-11T13:26:02.523Z,99932.78
2022-12-11T13:28:34.596Z,99930.59
2022-12-11T13:31:26.151Z,99936.78
2022-12-11T13:33:58.751Z,99937.97
2022-12-11T13:36:32.782Z,99941.69
2022-12-11T13:39:05.791Z,99934.78
2022-12-11T13:41:37.734Z,99940.44
2022-12-11T13:44:08.540Z,99936.50
2022-12-11T13:46:39.311Z,99939.69
2022-12-11T13:49:10.082Z,99948.19
2022-12-11T13:51:40.363Z,99949.66
2022-12-11T13:54:17.761Z,99947.91
2022-12-11T13:57:00.771Z,99945.97
2022-12-11T13:59:33.285Z,99952.63
2022-12-11T14:02:06.377Z,99956.09
2022-12-11T14:04:36.626Z,99957.34
2022-12-11T14:07:10.895Z,99960.06
2022-12-11T14:09:45.185Z,99954.88
2022-12-11T14:12:22.141Z,99960.09
2022-12-11T14:14:54.517Z,99961.06
2022-12-11T14:17:27.870Z,99965.53
2022-12-11T14:19:59.318Z,99965.03
2022-12-11T14:22:31.576Z,99968.75
2022-12-11T14:25:03.547Z,99971.47
2022-12-11T14:27:32.243Z,99968.50
2022-12-11T14:30:11.693Z,99974.16
2022-12-11T14:32:46.663Z,99972.69
2022-12-11T14:35:24.897Z,99974.41
2022-12-11T14:37:56.215Z,99975.63
2022-12-11T14:40:28.419Z,99975.91
2022-12-11T14:43:00.574Z,99975.84
2022-12-11T14:45:35.322Z,99981.56
2022-12-11T14:48:11.476Z,99986.03
2022-12-11T14:50:47.485Z,99982.03
2022-12-11T14:53:20.964Z,99984.00
2022-12-11T14:55:51.468Z,99992.19
2022-12-11T14:58:23.172Z,99992.94
2022-12-11T15:01:00.221Z,99989.00
2022-12-11T15:03:34.340Z,99993.94
2022-12-11T15:06:03.945Z,99987.00
2022-12-11T15:08:36.904Z,99991.97
2022-12-11T15:11:09.475Z,99988.00
2022-12-11T15:13:40.795Z,99978.59
2022-12-11T15:16:11.176Z,99995.44
2022-12-11T15:18:42.964Z,99983.81
2022-12-11T15:21:13.660Z,99987.50
2022-12-11T15:23:52.730Z,99999.88
2022-12-11T15:26:22.268Z,99999.63
2022-12-11T15:29:02.393Z,99997.16
2022-12-11T15:31:33.527Z,99988.72
2022-12-11T15:34:04.594Z,99992.94
2022-12-11T15:36:34.957Z,99995.16
2022-12-11T15:39:08.605Z,99997.91
2022-12-11T15:41:38.054Z,99996.38
2022-12-11T15:44:19.916Z,99997.91
2022-12-11T15:46:48.338Z,99998.16
2022-12-11T15:49:16.778Z,100002.84
2022-12-11T15:51:45.206Z,100002.34
2022-12-11T15:54:14.854Z,99995.44
2022-12-11T15:56:43.826Z,100001.63
2022-12-11T15:59:12.806Z,99989.72
2022-12-11T16:01:41.020Z,99988.94
2022-12-11T16:04:09.538Z,99996.63
2022-12-11T16:06:37.997Z,99994.84
2022-12-11T16:09:07.039Z,99995.84
2022-12-11T16:11:36.523Z,99996.56
2022-12-11T16:14:05.091Z,100004.47
2022-12-11T16:16:35.490Z,99998.78
2022-12-11T16:19:03.693Z,100008.19
2022-12-11T16:21:33.728Z,100000.22
2022-12-11T16:24:01.891Z,99998.00
2022-12-11T16:26:30.064Z,99999.72
2022-12-11T16:28:59.770Z,99995.75
2022-12-11T16:31:28.322Z,99992.03
2022-12-11T16:33:56.681Z,99988.81
2022-12-11T16:36:25.305Z,99984.59
2022-12-11T16:38:54.465Z,99987.31
2022-12-11T16:41:23.990Z,99981.34
2022-12-11T16:43:52.946Z,99988.03
2022-12-11T16:46:24.090Z,99993.72
2022-12-11T16:48:52.322Z,99993.47
2022-12-11T16:51:20.632Z,99996.72
2022-12-11T16:53:51.809Z,100001.19
2022-12-11T16:56:22.661Z,99995.50
2022-12-11T16:58:50.802Z,99999.22
2022-12-11T17:01:19.307Z,99996.00
2022-12-11T17:03:49.469Z,99997.50
2022-12-11T17:06:18.982Z,100002.00
2022-12-11T17:08:48.045Z,99994.84
2022-12-11T17:11:19.504Z,99993.59
2022-12-11T17:13:47.955Z,99993.59
2022-12-11T17:16:17.756Z,99983.44
2022-12-11T17:18:47.806Z,99990.38
2022-12-11T17:21:22.665Z,99982.94
2022-12-11T17:23:52.032Z,99987.41
2022-12-11T17:26:21.185Z,99989.41
2022-12-11T17:28:49.586Z,99984.94
2022-12-11T17:31:20.386Z,99990.88
2022-12-11T17:33:49.643Z,99997.09
2022-12-11T17:36:21.698Z,99982.22
2022-12-11T17:38:50.791Z,99994.59
2022-12-11T17:41:21.175Z,99985.41
2022-12-11T17:43:50.371Z,99991.59
2022-12-11T17:46:19.520Z,99994.03
2022-12-11T17:48:47.974Z,99982.41
2022-12-11T17:51:21.811Z,99993.09
2022-12-11T17:53:52.646Z,99993.31
2022-12-11T17:56:21.025Z,99994.03
2022-12-11T17:58:49.497Z,99985.88
2022-12-11T18:01:18.587Z,99986.84
2022-12-11T18:03:47.671Z,99986.66
2022-12-11T18:06:17.349Z,99984.19
2022-12-11T18:08:46.728Z,99971.25
2022-12-11T18:11:18.685Z,99974.03
2022-12-11T18:13:50.431Z,99984.88
2022-12-11T18:16:21.116Z,99982.66
2022-12-11T18:18:50.347Z,99981.22
2022-12-11T18:21:21.511Z,99979.44
2022-12-11T18:23:51.213Z,99980.69
2022-12-11T18:26:21.568Z,99984.41
2022-12-11T18:28:51.463Z,99981.69
2022-12-11T18:31:21.344Z,99981.69
2022-12-11T18:33:50.320Z,99983.16
2022-12-11T18:36:21.191Z,99975.00
2022-12-11T18:38:49.826Z,99974.50
2022-12-11T18:41:20.374Z,99981.94
2022-12-11T18:43:49.063Z,99982.94
2022-12-11T18:46:21.084Z,99980.22
2022-12-11T18:48:49.941Z,99986.88
2022-12-11T18:51:22.729Z,99987.66
2022-12-11T18:53:51.738Z,99982.94
2022-12-11T18:56:22.604Z,99982.94
2022-12-11T18:58:52.208Z,99982.44
2022-12-11T19:01:23.045Z,99990.84
2022-12-11T19:03:51.808Z,99988.88
2022-12-11T19:06:24.387Z,99986.91
2022-12-11T19:08:53.212Z,99989.66
2022-12-11T19:11:26.491Z,99984.19
2022-12-11T19:13:57.195Z,99979.28
2022-12-11T19:16:29.748Z,99976.31
2022-12-11T19:18:58.981Z,99975.03
2022-12-11T19:21:28.411Z,99972.53
2022-12-11T19:23:57.170Z,99968.81
2022-12-11T19:26:27.102Z,99971.06
2022-12-11T19:28:59.954Z,99976.50
2022-12-11T19:31:30.590Z,99971.06
2022-12-11T19:33:59.802Z,99971.78
2022-12-11T19:36:30.776Z,99967.34
2022-12-11T19:39:02.273Z,99968.34
2022-12-11T19:41:34.429Z,99971.06
2022-12-11T19:44:02.977Z,99964.88
2022-12-11T19:46:32.089Z,99971.06
2022-12-11T19:49:01.388Z,99973.03
2022-12-11T19:51:33.677Z,99970.06
2022-12-11T19:54:03.575Z,99974.25
2022-12-11T19:56:34.300Z,99967.59
2022-12-11T19:59:03.721Z,99969.63
2022-12-11T20:01:36.586Z,99974.06
2022-12-11T20:04:07.788Z,99968.59
2022-12-11T20:06:38.083Z,99966.34
2022-12-11T20:09:11.093Z,99953.97
2022-12-11T20:11:45.696Z,99958.69
2022-12-11T20:14:20.454Z,99962.16
2022-12-11T20:19:37.409Z,99965.34
2022-12-11T20:22:06.166Z,99968.06
2022-12-11T20:24:34.954Z,99971.53
2022-12-11T20:27:06.516Z,99975.03
2022-12-11T20:29:35.208Z,99974.78
2022-12-11T20:32:03.548Z,99982.69
2022-12-11T20:34:31.823Z,99971.78
2022-12-11T20:37:00.809Z,99970.59
2022-12-11T20:39:29.205Z,99977.97
2022-12-11T20:41:57.364Z,99975.25
2022-12-11T20:44:27.383Z,99971.06
2022-12-11T20:46:56.203Z,99975.25
2022-12-11T20:49:24.526Z,99974.53
2022-12-11T20:51:53.032Z,99974.03
2022-12-11T20:54:21.182Z,99976.22
2022-12-11T20:56:49.633Z,99971.00
2022-12-11T20:59:17.791Z,99980.16
2022-12-11T21:01:47.383Z,99982.41
2022-12-11T21:04:15.639Z,99980.16
2022-12-11T21:06:45.339Z,99980.16
2022-12-11T21:09:15.186Z,99983.41
2022-12-11T21:11:43.481Z,99980.69
2022-12-11T21:14:11.943Z,99975.00
2022-12-11T21:16:40.522Z,99980.94
2022-12-11T21:19:16.540Z,99992.06
2022-12-11T21:21:46.218Z,99988.59
2022-12-11T21:24:16.347Z,99985.16
2022-12-11T21:26:44.958Z,99984.88
2022-12-11T21:29:13.753Z,99975.50
2022-12-11T21:31:42.461Z,99982.41
2022-12-11T21:34:13.024Z,99985.41
2022-12-11T21:36:41.497Z,99988.59
2022-12-11T21:39:10.607Z,99993.31
2022-12-11T21:41:39.250Z,99998.28
2022-12-11T21:45:25.826Z,99997.03
2022-12-11T21:46:57.910Z,99997.03
2022-12-11T21:49:27.364Z,99990.59
2022-12-11T21:51:56.331Z,99990.59
2022-12-11T21:54:24.805Z,99998.53
2022-12-11T21:56:54.427Z,100001.75
2022-12-11T21:59:22.781Z,100003.75
2022-12-11T22:01:52.576Z,100001.75
2022-12-11T22:04:21.032Z,99999.03
2022-12-11T22:06:51.997Z,100000.28
2022-12-11T22:09:20.682Z,100006.19
2022-12-11T22:11:50.625Z,100001.50
2022-12-11T22:14:23.528Z,100000.75
2022-12-11T22:16:51.743Z,99992.38
2022-12-11T22:19:20.381Z,99998.28
2022-12-11T22:21:50.805Z,99990.84
2022-12-11T22:24:20.637Z,99988.13
2022-12-11T22:26:49.117Z,99988.88
2022-12-11T22:29:17.449Z,99983.44
2022-12-11T22:31:45.896Z,99991.84
2022-12-11T22:34:15.268Z,99987.41
2022-12-11T22:36:43.440Z,99989.84
2022-12-11T22:39:15.171Z,99992.59
2022-12-11T22:41:43.446Z,99993.84
2022-12-11T22:44:15.754Z,99993.59
2022-12-11T22:46:50.008Z,99989.13
2022-12-11T22:49:19.796Z,99989.13
2022-12-11T22:51:50.409Z,99993.59
2022-12-11T22:54:21.329Z,99991.59
2022-12-11T22:56:49.963Z,99998.78
2022-12-11T22:59:18.471Z,99989.13
2022-12-11T23:01:46.629Z,99993.84
2022-12-11T23:04:14.748Z,99990.09
2022-12-11T23:06:44.643Z,99992.31
2022-12-11T23:09:12.957Z,99994.03
2022-12-11T23:11:43.090Z,99990.59
2022-12-11T23:14:15.911Z,99992.31
2022-12-11T23:16:45.444Z,99998.53
2022-12-11T23:19:14.488Z,100000.00
2022-12-11T23:21:45.511Z,99996.50
2022-12-11T23:24:14.186Z,99995.28
2022-12-11T23:26:44.272Z,99988.59
2022-12-11T23:29:12.774Z,99996.75
2022-12-11T23:31:41.357Z,99991.03
2022-12-11T23:34:10.186Z,99986.09
2022-12-11T23:36:39.139Z,99989.31
2022-12-11T23:39:09.280Z,99988.78
2022-12-11T23:41:38.243Z,99993.28
2022-12-11T23:44:08.036Z,99995.94
2022-12-11T23:46:37.098Z,100002.59
2022-12-11T23:49:05.766Z,100004.63
2022-12-11T23:51:35.930Z,99999.41
2022-12-11T23:54:04.151Z,99999.66
2022-12-11T23:56:32.313Z,99991.25
2022-12-11T23:59:00.713Z,100001.38
